Time;durP1;ratioP1;P1;durP2;ratioP2;P2;SDS_P1;SDS_P2;PMS_P1;PMS_P2;Temp;Humidity;BMP_temperature;BMP_pressure;BME280_temperature;BME280_humidity;BME280_pressure;Samples;Min_cycle;Max_cycle;Signal;HPM_P1;HPM_P2
2023/06/19 00:01:59;;;;;;;5.82;4.45;;;;;;;17.34;93.66;94584.34;5073355;28;20033;-84
2023/06/19 00:04:26;;;;;;;8.48;4.80;;;;;;;17.37;100.00;94586.41;5054973;28;20075;-84
2023/06/19 00:06:52;;;;;;;8.57;5.13;;;;;;;17.32;95.92;94580.44;5056784;28;20043;-84
2023/06/19 00:09:18;;;;;;;9.57;4.45;;;;;;;17.35;93.51;94585.13;5059098;28;20046;-84
2023/06/19 00:12:04;;;;;;;6.18;4.38;;;;;;;17.36;89.68;94576.88;5059001;28;20106;-84
2023/06/19 00:14:29;;;;;;;6.72;4.13;;;;;;;17.48;91.41;94584.25;5076404;28;20027;-84
2023/06/19 00:16:54;;;;;;;10.60;5.03;;;;;;;17.35;100.00;94583.25;5058782;28;20032;-84
2023/06/19 00:19:20;;;;;;;7.80;4.40;;;;;;;17.24;98.06;94582.75;5058896;28;20043;-84
2023/06/19 00:21:45;;;;;;;7.28;4.15;;;;;;;17.34;93.94;94586.97;5058754;28;20444;-84
2023/06/19 00:24:11;;;;;;;8.73;4.75;;;;;;;17.27;99.51;94577.91;5042247;28;20149;-84
2023/06/19 00:26:36;;;;;;;8.40;4.55;;;;;;;17.14;97.58;94587.50;5041741;28;20097;-83
2023/06/19 00:29:20;;;;;;;6.43;4.43;;;;;;;17.15;100.00;94587.22;5042215;28;20020;-84
2023/06/19 00:34:30;;;;;;;;;;;;;;;17.29;94.14;94597.72;5063903;28;20459;-84
2023/06/19 00:36:57;;;;;;;9.75;4.13;;;;;;;17.34;96.36;94600.22;5061336;28;19951;-84
2023/06/19 00:39:23;;;;;;;8.63;4.30;;;;;;;17.34;92.76;94597.56;5061252;28;20038;-83
2023/06/19 00:44:35;;;;;;;6.32;4.35;;;;;;;17.36;90.55;94603.38;5058775;28;20353;-84
2023/06/19 00:47:02;;;;;;;9.00;5.13;;;;;;;17.42;90.64;94595.28;5046932;28;20118;-84
2023/06/19 00:49:29;;;;;;;7.13;4.72;;;;;;;17.37;97.24;94596.19;5028734;28;20036;-84
2023/06/19 00:51:55;;;;;;;6.90;4.32;;;;;;;17.31;94.45;94595.53;5041019;28;20039;-84
2023/06/19 00:54:39;;;;;;;7.90;4.88;;;;;;;17.36;97.46;94598.06;5055780;28;20032;-83
2023/06/19 00:57:23;;;;;;;6.95;4.70;;;;;;;17.07;100.00;94593.25;5078596;28;20123;-84
2023/06/19 01:02:33;;;;;;;8.50;4.88;;;;;;;16.76;100.00;94604.53;5063483;28;20411;-83
2023/06/19 01:05:03;;;;;;;8.52;4.80;;;;;;;16.82;100.00;94606.75;5078099;28;20035;-83
2023/06/19 01:07:40;;;;;;;7.30;4.50;;;;;;;16.94;100.00;94606.22;5060354;28;20033;-83
2023/06/19 01:10:08;;;;;;;7.60;4.55;;;;;;;16.99;100.00;94610.63;5044659;28;20039;-84
2023/06/19 01:15:25;;;;;;;7.28;4.63;;;;;;;16.86;100.00;94614.09;5041629;28;20476;-84
2023/06/19 01:21:12;;;;;;;6.10;4.43;;;;;;;17.00;100.00;94606.91;5055885;28;20047;-83
2023/06/19 01:23:56;;;;;;;9.00;4.75;;;;;;;17.04;100.00;94615.03;5056951;28;20344;-83
2023/06/19 01:26:41;;;;;;;7.30;4.10;;;;;;;17.26;87.81;94616.88;5038724;28;20136;-83
2023/06/19 01:29:25;;;;;;;6.05;4.25;;;;;;;16.88;97.44;94617.22;5052793;28;20079;-83
2023/06/19 01:32:04;;;;;;;7.65;4.63;;;;;;;16.93;95.74;94617.13;5055758;28;20044;-84
2023/06/19 01:34:30;;;;;;;6.80;3.88;;;;;;;16.99;94.70;94625.69;5047126;28;20033;-84
2023/06/19 01:36:57;;;;;;;6.60;3.92;;;;;;;16.90;97.31;94630.91;5022065;28;20040;-84
2023/06/19 01:39:23;;;;;;;8.02;4.32;;;;;;;16.88;94.65;94620.66;5038347;28;20123;-83
2023/06/19 01:41:48;;;;;;;6.88;4.05;;;;;;;16.87;94.50;94626.22;5056640;28;20112;-84
2023/06/19 01:44:14;;;;;;;8.40;4.13;;;;;;;17.15;86.66;94626.13;5053547;28;20072;-84
2023/06/19 01:46:39;;;;;;;8.73;4.35;;;;;;;16.92;100.00;94623.47;5054774;28;20496;-84
2023/06/19 01:49:09;;;;;;;7.57;4.53;;;;;;;16.71;100.00;94613.38;5052253;28;20450;-84
2023/06/19 01:51:35;;;;;;;6.47;4.38;;;;;;;16.74;99.76;94612.75;5031424;28;20035;-84
2023/06/19 01:54:19;;;;;;;6.45;4.35;;;;;;;16.84;94.30;94613.63;5055233;28;20029;-83
2023/06/19 01:56:45;;;;;;;6.85;4.43;;;;;;;16.94;91.69;94611.50;5054846;28;20374;-84
2023/06/19 01:59:10;;;;;;;9.25;4.43;;;;;;;16.89;98.88;94608.19;5038316;28;20035;-83
2023/06/19 02:01:35;;;;;;;9.93;4.38;;;;;;;16.90;91.61;94610.53;5047910;28;20020;-84
2023/06/19 02:04:01;;;;;;;8.13;4.47;;;;;;;17.17;92.59;94616.81;5054990;28;20032;-84
2023/06/19 02:06:26;;;;;;;6.00;4.22;;;;;;;17.29;87.94;94616.25;5054533;28;20040;-83
2023/06/19 02:11:36;;;;;;;6.10;4.20;;;;;;;17.01;91.83;94620.94;5073147;28;20044;-83
2023/06/19 02:14:01;;;;;;;8.25;3.92;;;;;;;16.91;86.07;94612.09;5075947;28;20353;-84
2023/06/19 02:16:26;;;;;;;12.38;4.78;;;;;;;16.66;95.93;94632.00;5049219;28;20029;-84
2023/06/19 02:18:52;;;;;;;6.28;4.10;;;;;;;16.76;96.81;94623.81;5041510;28;20127;-84
2023/06/19 02:21:36;;;;;;;6.88;4.32;;;;;;;16.55;100.00;94628.78;5057958;28;20472;-84
2023/06/19 02:24:01;;;;;;;7.28;4.05;;;;;;;16.48;100.00;94633.72;5075710;28;20025;-84
2023/06/19 02:26:29;;;;;;;6.10;4.07;;;;;;;16.60;98.27;94633.19;5057432;28;20425;-84
2023/06/19 02:28:55;;;;;;;10.23;3.90;;;;;;;16.73;94.36;94635.00;5057550;28;20024;-84
2023/06/19 02:31:21;;;;;;;7.28;4.00;;;;;;;16.88;88.44;94636.53;5075449;28;20345;-84
2023/06/19 02:33:47;;;;;;;6.28;4.40;;;;;;;16.85;94.24;94636.34;5057455;28;20396;-84
2023/06/19 02:36:12;;;;;;;6.72;4.18;;;;;;;16.94;85.18;94637.19;5040832;28;20032;-84
2023/06/19 02:41:21;;;;;;;5.47;4.30;;;;;;;17.17;83.75;94645.16;5060152;28;20125;-84
2023/06/19 02:43:47;;;;;;;11.13;4.00;;;;;;;17.17;84.63;94639.84;5075171;28;20070;-84
2023/06/19 02:46:31;;;;;;;8.48;4.38;;;;;;;17.16;89.84;94641.72;5058086;28;20033;-83
2023/06/19 02:48:57;;;;;;;8.00;4.30;;;;;;;17.28;87.22;94651.75;5076780;28;20444;-84
2023/06/19 02:51:22;;;;;;;7.60;4.57;;;;;;;17.36;87.53;94651.03;5058868;28;20028;-83
2023/06/19 02:53:47;;;;;;;6.60;4.10;;;;;;;17.27;89.52;94654.69;5058712;28;20111;-84
2023/06/19 02:56:13;;;;;;;7.55;4.55;;;;;;;17.08;91.23;94645.09;5058602;28;20020;-84
2023/06/19 02:58:57;;;;;;;9.73;4.20;;;;;;;17.07;97.75;94646.97;5058640;28;20028;-84
2023/06/19 03:01:23;;;;;;;8.38;4.88;;;;;;;16.96;91.90;94646.38;5042063;28;20035;-83
2023/06/19 03:03:52;;;;;;;12.43;4.50;;;;;;;17.17;96.95;94640.66;5057507;28;20060;-83
2023/06/19 03:06:18;;;;;;;5.03;3.95;;;;;;;17.22;91.95;94640.50;5072950;28;20078;-83
2023/06/19 03:08:52;;;;;;;9.80;4.88;;;;;;;17.15;94.44;94636.72;5069517;28;20025;-84
2023/06/19 03:11:18;;;;;;;6.38;4.32;;;;;;;17.19;96.67;94632.38;5057553;28;20029;-83
2023/06/19 03:16:31;;;;;;;7.40;4.53;;;;;;;16.82;100.00;94646.44;5061275;28;20035;-83
2023/06/19 03:19:16;;;;;;;8.82;4.47;;;;;;;16.88;100.00;94644.47;5057959;28;20028;-84
2023/06/19 03:21:42;;;;;;;9.73;5.00;;;;;;;16.61;100.00;94646.13;5038352;28;20039;-83
2023/06/19 03:24:07;;;;;;;7.40;4.93;;;;;;;16.74;100.00;94652.44;5022286;28;20508;-84
2023/06/19 03:26:34;;;;;;;10.93;4.45;;;;;;;16.83;100.00;94652.50;5038167;28;20025;-83
2023/06/19 03:29:00;;;;;;;11.25;4.93;;;;;;;16.89;97.24;94661.13;5025132;28;20094;-83
2023/06/19 03:31:25;;;;;;;6.78;4.82;;;;;;;16.78;98.12;94655.28;5038193;28;20028;-83
2023/06/19 03:33:51;;;;;;;9.27;4.85;;;;;;;16.62;100.00;94654.81;5038242;28;20029;-84
2023/06/19 03:36:16;;;;;;;8.00;4.78;;;;;;;16.41;100.00;94652.63;5038042;28;20441;-83
2023/06/19 03:38:42;;;;;;;12.00;4.85;;;;;;;16.54;100.00;94641.25;5048645;28;20029;-83
2023/06/19 03:41:26;;;;;;;6.88;4.63;;;;;;;16.65;100.00;94646.31;5040591;28;20074;-83
2023/06/19 03:43:52;;;;;;;7.40;4.47;;;;;;;16.84;100.00;94632.91;5042185;28;20122;-83
2023/06/19 03:46:18;;;;;;;6.38;3.90;;;;;;;16.95;100.00;94638.75;5042208;28;20037;-83
2023/06/19 03:49:04;;;;;;;7.45;4.47;;;;;;;16.93;93.02;94652.28;5036194;28;20353;-83
2023/06/19 03:51:30;;;;;;;10.68;4.90;;;;;;;16.98;89.93;94640.78;5034567;28;20029;-84
2023/06/19 03:53:55;;;;;;;8.30;4.88;;;;;;;16.80;98.07;94639.88;5042113;28;20036;-84
2023/06/19 03:56:21;;;;;;;6.93;4.30;;;;;;;16.77;100.00;94645.78;5057550;28;20112;-84
2023/06/19 03:58:46;;;;;;;9.10;4.72;;;;;;;16.67;100.00;94649.44;5041782;28;20033;-84
2023/06/19 04:01:12;;;;;;;7.53;4.47;;;;;;;16.75;100.00;94643.41;5056708;28;20029;-84
2023/06/19 04:03:48;;;;;;;6.80;4.85;;;;;;;16.78;100.00;94650.00;5051645;28;20029;-84
2023/06/19 04:06:13;;;;;;;7.63;4.75;;;;;;;17.00;97.62;94632.56;5058642;28;20029;-84
2023/06/19 04:11:42;;;;;;;7.50;4.30;;;;;;;17.26;100.00;94642.53;5044491;28;20063;-84
2023/06/19 04:14:07;;;;;;;7.10;4.82;;;;;;;17.32;98.02;94634.19;5041959;28;20029;-90
2023/06/19 04:16:33;;;;;;;7.40;5.00;;;;;;;17.48;98.86;94639.88;5041297;28;20460;-84
2023/06/19 04:18:58;;;;;;;6.55;4.40;;;;;;;17.51;100.00;94633.19;5025288;28;20037;-84
2023/06/19 04:21:24;;;;;;;8.82;4.60;;;;;;;17.40;100.00;94631.91;5059344;28;20029;-84
2023/06/19 04:26:52;;;;;;;6.93;4.25;;;;;;;17.59;100.00;94632.44;5059357;28;20036;-84
2023/06/19 04:29:18;;;;;;;6.78;4.10;;;;;;;17.76;96.79;94639.69;5057090;28;20017;-84
2023/06/19 04:31:46;;;;;;;5.68;4.22;;;;;;;18.07;94.75;94638.09;5059791;28;20032;-84
2023/06/19 04:34:31;;;;;;;10.60;4.50;;;;;;;17.82;96.71;94643.00;5045011;28;20119;-84
2023/06/19 04:39:59;;;;;;;;;;;;;;;18.20;100.00;94637.19;5079569;28;20035;-84
2023/06/19 04:42:24;;;;;;;6.38;4.35;;;;;;;18.41;100.00;94636.59;5078984;28;19909;-84
2023/06/19 04:45:09;;;;;;;7.28;4.22;;;;;;;18.60;96.96;94638.19;5057578;28;20359;-83
2023/06/19 04:47:34;;;;;;;7.72;4.32;;;;;;;18.91;100.00;94631.94;5061257;28;20013;-83
2023/06/19 04:50:00;;;;;;;6.85;4.53;;;;;;;18.96;99.77;94631.00;5057104;28;20310;-83
2023/06/19 04:52:26;;;;;;;9.15;4.50;;;;;;;18.67;100.00;94627.88;5060230;28;20345;-83
2023/06/19 04:54:51;;;;;;;10.93;4.68;;;;;;;18.55;100.00;94622.41;5060770;28;20031;-83
2023/06/19 04:57:17;;;;;;;8.75;4.97;;;;;;;18.44;100.00;94633.31;5044311;28;20030;-83
2023/06/19 05:00:01;;;;;;;11.68;4.85;;;;;;;18.89;100.00;94628.81;5043883;28;20028;-83
2023/06/19 05:02:26;;;;;;;7.93;4.80;;;;;;;19.09;100.00;94627.41;5078520;28;20078;-83
2023/06/19 05:04:52;;;;;;;5.93;4.70;;;;;;;19.00;100.00;94623.97;5060215;28;20068;-83
2023/06/19 05:07:36;;;;;;;9.00;5.47;;;;;;;19.25;100.00;94630.34;5044082;28;20170;-83
2023/06/19 05:10:02;;;;;;;7.50;4.57;;;;;;;19.26;100.00;94631.13;5078197;28;20492;-83
2023/06/19 05:12:27;;;;;;;6.45;4.45;;;;;;;18.93;100.00;94627.88;5044049;28;20031;-84
2023/06/19 05:14:53;;;;;;;7.78;4.93;;;;;;;18.60;100.00;94620.41;5043804;28;20025;-84
2023/06/19 05:17:18;;;;;;;7.43;4.97;;;;;;;18.43;100.00;94623.81;5077793;28;20024;-83
2023/06/19 05:20:02;;;;;;;8.40;4.68;;;;;;;18.61;100.00;94624.59;5078225;28;20032;-84
2023/06/19 05:22:47;;;;;;;8.65;4.63;;;;;;;18.51;100.00;94616.94;5043821;28;20032;-83
2023/06/19 05:25:13;;;;;;;7.22;4.75;;;;;;;18.81;100.00;94619.75;5060471;28;20036;-83
2023/06/19 05:27:38;;;;;;;8.45;5.05;;;;;;;18.55;100.00;94619.75;5053886;28;20020;-83
2023/06/19 05:30:04;;;;;;;9.52;5.47;;;;;;;18.01;100.00;94628.69;5076843;28;20035;-83
2023/06/19 05:32:48;;;;;;;8.85;5.65;;;;;;;17.87;100.00;94624.28;5069024;28;20130;-84
2023/06/19 05:35:14;;;;;;;8.45;5.00;;;;;;;18.22;100.00;94629.72;5058270;28;20040;-83
2023/06/19 05:37:42;;;;;;;15.73;4.57;;;;;;;18.44;100.00;94630.69;5070157;28;20028;-83
2023/06/19 05:42:55;;;;;;;7.68;4.82;;;;;;;18.61;100.00;94621.94;5076816;28;20139;-83
2023/06/19 05:45:21;;;;;;;10.88;5.70;;;;;;;18.38;100.00;94634.59;5076199;28;20028;-83
2023/06/19 05:47:46;;;;;;;14.05;5.40;;;;;;;17.92;100.00;94641.91;5054562;28;20029;-83
2023/06/19 05:50:11;;;;;;;10.73;5.82;;;;;;;17.68;100.00;94637.78;5076388;28;20039;-83
2023/06/19 05:52:41;;;;;;;8.63;5.30;;;;;;;18.21;100.00;94643.28;5059828;28;20032;-83
2023/06/19 05:58:10;;;;;;;8.73;4.78;;;;;;;18.66;100.00;94644.91;5062350;28;20040;-83
2023/06/19 06:00:35;;;;;;;6.93;4.65;;;;;;;18.81;100.00;94638.34;5059629;28;20059;-83
2023/06/19 06:03:00;;;;;;;7.32;5.00;;;;;;;18.31;100.00;94644.84;5056148;28;20024;-83
2023/06/19 06:05:48;;;;;;;9.40;5.43;;;;;;;17.90;100.00;94644.09;5074883;28;20033;-83
2023/06/19 06:10:58;;;;;;;7.53;5.07;;;;;;;17.93;100.00;94632.88;5072449;28;20135;-83
2023/06/19 06:13:23;;;;;;;8.45;5.95;;;;;;;18.34;100.00;94628.31;5077228;28;20029;-83
2023/06/19 06:15:52;;;;;;;8.20;5.20;;;;;;;18.78;100.00;94634.44;5058959;28;20063;-83
2023/06/19 06:18:17;;;;;;;11.35;5.50;;;;;;;19.00;100.00;94632.72;5059393;28;20044;-83
2023/06/19 06:20:43;;;;;;;7.20;4.90;;;;;;;18.69;100.00;94638.19;5059533;28;20066;-83
2023/06/19 06:23:27;;;;;;;10.07;5.28;;;;;;;18.43;100.00;94634.41;5077065;28;20060;-84
2023/06/19 06:25:52;;;;;;;7.82;5.13;;;;;;;19.00;100.00;94635.38;5059062;28;20050;-83
2023/06/19 06:31:02;;;;;;;7.47;5.18;;;;;;;18.46;100.00;94643.63;5072608;28;20075;-83
2023/06/19 06:33:46;;;;;;;7.55;5.00;;;;;;;18.53;100.00;94641.28;5042662;28;20071;-84
2023/06/19 06:36:14;;;;;;;8.38;5.22;;;;;;;18.70;100.00;94640.53;5059212;28;20091;-83
2023/06/19 06:38:40;;;;;;;8.40;5.18;;;;;;;19.45;100.00;94644.06;5058960;28;20392;-83
2023/06/19 06:41:05;;;;;;;7.22;5.20;;;;;;;19.66;100.00;94644.16;5056549;28;20036;-83
2023/06/19 06:43:31;;;;;;;9.57;5.30;;;;;;;19.74;100.00;94646.00;5058911;28;20433;-83
2023/06/19 06:45:56;;;;;;;9.55;5.10;;;;;;;19.71;100.00;94649.28;5058781;28;20039;-83
2023/06/19 06:48:40;;;;;;;15.43;5.80;;;;;;;19.00;100.00;94646.00;5076721;28;20032;-83
2023/06/19 06:51:24;;;;;;;9.60;5.25;;;;;;;18.40;100.00;94655.47;5076688;28;20437;-83
2023/06/19 06:53:50;;;;;;;12.38;5.55;;;;;;;18.45;100.00;94661.41;5058980;28;20056;-83
2023/06/19 06:56:16;;;;;;;9.25;5.70;;;;;;;18.65;100.00;94657.38;5058445;28;20028;-83
2023/06/19 06:58:41;;;;;;;9.07;5.00;;;;;;;19.10;100.00;94654.75;5058652;28;20033;-83
2023/06/19 07:01:06;;;;;;;7.65;4.80;;;;;;;19.83;100.00;94659.25;5056035;28;20036;-83
2023/06/19 07:03:32;;;;;;;9.52;5.78;;;;;;;20.11;100.00;94655.41;5058713;28;20390;-84
2023/06/19 07:05:57;;;;;;;7.63;5.25;;;;;;;20.19;100.00;94657.25;5071198;28;20032;-84
2023/06/19 07:08:23;;;;;;;7.80;5.00;;;;;;;20.56;100.00;94652.16;5076370;28;20036;-83
2023/06/19 07:10:48;;;;;;;9.93;5.72;;;;;;;20.74;100.00;94647.50;5058565;28;20052;-84
2023/06/19 07:21:46;;;;;;;7.05;4.45;;;;;;;21.74;100.00;94637.97;5079538;28;20105;-84
2023/06/19 07:24:30;;;;;;;7.68;4.88;;;;;;;21.83;100.00;94640.53;5080593;28;20035;-83
2023/06/19 07:26:56;;;;;;;7.05;4.88;;;;;;;22.22;100.00;94639.41;5062568;28;20035;-84
2023/06/19 07:29:22;;;;;;;8.10;5.07;;;;;;;22.39;100.00;94647.19;5078601;28;20078;-84
2023/06/19 07:31:48;;;;;;;7.80;5.10;;;;;;;22.15;100.00;94646.09;5062350;28;20434;-84
2023/06/19 07:36:57;;;;;;;7.35;4.65;;;;;;;22.51;100.00;94654.41;5075347;28;20043;-84
2023/06/19 07:39:23;;;;;;;9.35;4.70;;;;;;;22.57;100.00;94645.06;5080196;28;20354;-84
2023/06/19 07:41:48;;;;;;;8.75;4.55;;;;;;;22.21;99.05;94643.97;5062508;28;20024;-84
2023/06/19 07:44:17;;;;;;;8.65;4.50;;;;;;;21.99;100.00;94637.22;5077242;28;20046;-84
2023/06/19 07:47:02;;;;;;;7.93;4.72;;;;;;;22.07;100.00;94641.63;5062919;28;20032;-83
2023/06/19 07:52:11;;;;;;;9.90;4.85;;;;;;;21.85;100.00;94640.97;5078966;28;20082;-84
2023/06/19 07:54:36;;;;;;;7.75;4.93;;;;;;;22.29;100.00;94635.06;5057485;28;20345;-84
2023/06/19 07:57:02;;;;;;;9.55;4.72;;;;;;;22.31;100.00;94640.06;5025424;28;20066;-84
2023/06/19 07:59:46;;;;;;;9.38;4.80;;;;;;;22.62;100.00;94640.63;5041932;28;20029;-83
2023/06/19 08:05:14;;;;;;;7.22;4.30;;;;;;;22.89;91.07;94631.06;5044335;28;20086;-84
2023/06/19 08:07:40;;;;;;;7.07;4.78;;;;;;;23.12;91.67;94638.56;5042072;28;20082;-84
2023/06/19 08:10:06;;;;;;;6.28;4.18;;;;;;;22.99;100.00;94633.25;5025520;28;20033;-84
2023/06/19 08:12:31;;;;;;;8.88;4.57;;;;;;;23.12;100.00;94639.31;5041785;28;20033;-84
2023/06/19 08:14:57;;;;;;;6.57;4.40;;;;;;;23.44;100.00;94641.31;5041658;28;20442;-84
2023/06/19 08:17:22;;;;;;;8.32;4.82;;;;;;;23.23;100.00;94642.25;5041622;28;20400;-84
2023/06/19 08:19:48;;;;;;;6.68;4.45;;;;;;;23.73;100.00;94632.09;5041625;28;20033;-84
2023/06/19 08:22:32;;;;;;;7.47;4.65;;;;;;;23.66;100.00;94637.28;5059451;28;20040;-85
2023/06/19 08:24:57;;;;;;;6.65;4.50;;;;;;;23.49;100.00;94642.97;5059114;28;20029;-84
2023/06/19 08:30:25;;;;;;;6.85;5.07;;;;;;;23.35;100.00;94640.69;5044229;28;20183;-83
2023/06/19 08:35:35;;;;;;;8.63;4.95;;;;;;;23.61;100.00;94628.72;5044092;28;20105;-85
2023/06/19 08:38:19;;;;;;;8.25;4.90;;;;;;;23.60;100.00;94629.84;5059048;28;20029;-85
2023/06/19 08:43:29;;;;;;;7.10;4.82;;;;;;;23.91;100.00;94637.09;5057993;28;20036;-85
2023/06/19 08:46:11;;;;;;;10.38;5.05;;;;;;;23.94;100.00;94635.63;5041152;28;20453;-85
2023/06/19 08:48:37;;;;;;;6.50;4.90;;;;;;;24.17;100.00;94637.72;5060769;28;20046;-85
2023/06/19 08:51:04;;;;;;;5.63;4.60;;;;;;;24.16;100.00;94638.84;5061059;28;20033;-85
2023/06/19 08:53:32;;;;;;;7.00;4.45;;;;;;;24.08;100.00;94641.34;5061123;28;20039;-85
2023/06/19 08:55:57;;;;;;;7.55;5.10;;;;;;;23.60;99.32;94632.53;5061107;28;20028;-84
2023/06/19 08:58:23;;;;;;;10.10;4.65;;;;;;;24.24;100.00;94635.19;5060770;28;20032;-85
2023/06/19 09:00:49;;;;;;;7.07;4.82;;;;;;;24.28;100.00;94644.84;5060911;28;20073;-84
2023/06/19 09:06:06;;;;;;;5.75;4.70;;;;;;;24.51;100.00;94640.72;5063167;28;20085;-84
2023/06/19 09:08:32;;;;;;;6.35;4.60;;;;;;;24.69;100.00;94641.91;5060658;28;20048;-85
2023/06/19 09:11:06;;;;;;;9.15;5.30;;;;;;;24.61;100.00;94642.09;5044282;28;20068;-84
2023/06/19 09:13:51;;;;;;;10.70;4.65;;;;;;;24.77;100.00;94644.75;5060814;28;20063;-85
2023/06/19 09:16:16;;;;;;;9.63;4.50;;;;;;;24.71;100.00;94642.31;5078073;28;20052;-84
2023/06/19 09:18:48;;;;;;;11.48;4.82;;;;;;;24.73;100.00;94636.59;5060443;28;20032;-85
2023/06/19 09:21:24;;;;;;;6.78;5.05;;;;;;;24.69;100.00;94638.44;5060538;28;20028;-85
2023/06/19 09:23:51;;;;;;;10.57;5.00;;;;;;;24.92;100.00;94638.53;5061056;28;20111;-84
2023/06/19 09:26:18;;;;;;;9.73;5.55;;;;;;;24.90;100.00;94640.03;5060459;28;20028;-85
2023/06/19 09:29:03;;;;;;;6.90;4.82;;;;;;;24.76;100.00;94645.84;5060531;28;20024;-84
2023/06/19 09:31:33;;;;;;;7.53;4.40;;;;;;;25.08;100.00;94645.72;5078126;28;20028;-85
2023/06/19 09:34:17;;;;;;;11.63;5.57;;;;;;;24.92;100.00;94643.91;5056971;28;20029;-85
2023/06/19 09:36:44;;;;;;;9.77;4.70;;;;;;;25.13;100.00;94651.56;5067121;28;20064;-84
2023/06/19 09:39:10;;;;;;;7.72;5.20;;;;;;;25.31;100.00;94639.66;5057607;28;20032;-85
2023/06/19 09:41:58;;;;;;;8.60;5.30;;;;;;;25.33;97.92;94646.22;5043649;28;20135;-85
2023/06/19 09:44:24;;;;;;;8.52;4.57;;;;;;;25.34;95.32;94649.66;5059965;28;20029;-84
2023/06/19 09:46:50;;;;;;;8.27;5.00;;;;;;;25.60;95.39;94653.59;5059967;28;20028;-84
2023/06/19 09:49:16;;;;;;;11.90;5.10;;;;;;;25.57;91.94;94654.31;5077729;28;20028;-84
2023/06/19 09:51:42;;;;;;;7.10;4.80;;;;;;;25.45;83.53;94656.00;5059904;28;20132;-84
2023/06/19 09:54:09;;;;;;;9.00;4.50;;;;;;;25.28;80.29;94654.53;5059926;28;20033;-84
2023/06/19 09:56:58;;;;;;;6.53;4.68;;;;;;;25.48;80.14;94657.19;5059682;28;20028;-84
2023/06/19 09:59:24;;;;;;;7.03;4.75;;;;;;;25.33;85.24;94651.56;5077456;28;20028;-85
2023/06/19 10:01:49;;;;;;;5.38;4.32;;;;;;;25.78;78.58;94654.66;5059619;28;20024;-84
2023/06/19 10:04:16;;;;;;;6.97;5.03;;;;;;;25.83;82.91;94662.44;5059640;28;20032;-84
2023/06/19 10:06:46;;;;;;;9.50;4.65;;;;;;;26.11;84.45;94653.28;5055318;28;20029;-85
2023/06/19 10:11:57;;;;;;;7.53;4.70;;;;;;;26.18;100.00;94641.91;5042299;28;20090;-85
2023/06/19 10:14:24;;;;;;;9.52;5.07;;;;;;;25.85;77.90;94651.31;5056988;28;20032;-84
2023/06/19 10:19:33;;;;;;;8.05;4.82;;;;;;;26.45;84.49;94647.25;5042089;28;20044;-85
2023/06/19 10:22:00;;;;;;;8.27;4.80;;;;;;;26.15;86.69;94657.91;5057110;28;20029;-84
2023/06/19 10:24:25;;;;;;;12.18;4.72;;;;;;;25.93;80.26;94666.41;5039395;28;20078;-84
2023/06/19 10:27:00;;;;;;;7.13;4.82;;;;;;;26.23;78.08;94662.28;5022760;28;20040;-84
2023/06/19 10:29:26;;;;;;;8.85;4.85;;;;;;;25.86;70.49;94660.91;5039401;28;20028;-85
2023/06/19 10:31:52;;;;;;;8.05;4.35;;;;;;;25.75;74.89;94663.44;5023168;28;20331;-85
2023/06/19 10:34:18;;;;;;;10.90;5.07;;;;;;;26.23;82.84;94660.38;5039219;28;20029;-85
2023/06/19 10:36:43;;;;;;;7.18;4.65;;;;;;;26.44;86.81;94661.81;5022565;28;20135;-84
2023/06/19 10:41:53;;;;;;;9.52;4.60;;;;;;;26.68;80.50;94660.63;5041830;28;20043;-85
2023/06/19 10:44:18;;;;;;;7.28;4.55;;;;;;;26.72;74.79;94657.19;5039072;28;20349;-85
2023/06/19 10:46:43;;;;;;;6.95;4.70;;;;;;;26.73;79.04;94651.44;5055394;28;20032;-85
2023/06/19 10:49:11;;;;;;;6.50;4.50;;;;;;;26.52;77.04;94654.63;5056768;28;20098;-85
2023/06/19 10:51:37;;;;;;;7.57;4.22;;;;;;;26.87;71.95;94656.28;5038554;28;20040;-85
2023/06/19 10:54:03;;;;;;;8.93;4.70;;;;;;;26.80;80.49;94650.75;5038932;28;20380;-85
2023/06/19 10:59:13;;;;;;;5.47;4.43;;;;;;;26.49;74.10;94653.47;5055598;28;20086;-85
2023/06/19 11:01:44;;;;;;;6.72;4.38;;;;;;;26.73;76.42;94643.38;5056599;28;20025;-85
2023/06/19 11:04:12;;;;;;;8.30;4.75;;;;;;;26.53;73.78;94645.44;5038794;28;20028;-84
2023/06/19 11:09:42;;;;;;;7.03;4.85;;;;;;;26.92;80.42;94644.44;5055570;28;20116;-85
2023/06/19 11:12:08;;;;;;;6.65;4.55;;;;;;;27.11;85.19;94643.47;5056516;28;20029;-85
2023/06/19 11:14:39;;;;;;;9.50;4.95;;;;;;;26.94;72.43;94636.75;5038310;28;20037;-85
2023/06/19 11:17:07;;;;;;;5.93;4.40;;;;;;;27.27;72.74;94639.81;5039533;28;20071;-85
2023/06/19 11:19:33;;;;;;;7.95;4.60;;;;;;;27.33;80.01;94638.34;5022279;28;20418;-85
2023/06/19 11:22:02;;;;;;;9.27;4.60;;;;;;;27.23;72.48;94640.53;5038698;28;20031;-85
2023/06/19 11:24:28;;;;;;;11.18;4.55;;;;;;;27.46;67.11;94636.94;5055087;28;20028;-85
2023/06/19 11:27:14;;;;;;;6.70;4.32;;;;;;;27.58;70.77;94630.53;5055172;28;20029;-85
2023/06/19 11:29:59;;;;;;;6.35;4.57;;;;;;;27.72;71.30;94637.19;5038664;28;20025;-85
2023/06/19 11:32:30;;;;;;;4.78;4.28;;;;;;;28.16;67.94;94627.53;5038570;28;20098;-85
2023/06/19 11:34:56;;;;;;;9.73;4.65;;;;;;;28.05;64.23;94632.84;5054790;28;20029;-85
2023/06/19 11:37:22;;;;;;;5.53;4.20;;;;;;;28.32;67.41;94638.81;5054947;28;20033;-85
2023/06/19 11:42:51;;;;;;;9.43;4.40;;;;;;;28.81;64.63;94622.53;5041209;28;20345;-85
2023/06/19 11:45:44;;;;;;;10.60;4.78;;;;;;;29.05;62.28;94620.31;5056135;28;20135;-85
2023/06/19 11:48:28;;;;;;;6.78;4.40;;;;;;;28.92;62.65;94617.19;5038355;28;20040;-85
2023/06/19 11:51:12;;;;;;;6.80;4.13;;;;;;;29.05;64.47;94620.31;5056193;28;20029;-85
2023/06/19 11:53:37;;;;;;;5.47;3.92;;;;;;;29.03;61.71;94617.97;5056146;28;20029;-85
2023/06/19 11:56:21;;;;;;;7.32;4.25;;;;;;;29.37;65.46;94625.00;5055976;28;20446;-85
2023/06/19 11:58:46;;;;;;;6.03;4.28;;;;;;;28.72;61.41;94617.44;5055979;28;20039;-85
2023/06/19 12:01:31;;;;;;;5.78;3.92;;;;;;;28.03;62.85;94606.28;5038514;28;20037;-85
2023/06/19 12:03:56;;;;;;;5.88;4.40;;;;;;;27.39;78.56;94604.56;5059819;28;20033;-85
2023/06/19 12:06:22;;;;;;;8.05;4.70;;;;;;;26.87;80.56;94605.19;5041350;28;20090;-85
2023/06/19 12:11:31;;;;;;;7.45;4.43;;;;;;;27.31;79.61;94605.66;5044502;28;20040;-85
2023/06/19 12:16:41;;;;;;;7.78;4.90;;;;;;;27.22;72.71;94605.97;5044133;28;20039;-85
2023/06/19 12:19:06;;;;;;;12.20;4.72;;;;;;;27.49;73.92;94603.91;5025341;28;20036;-85
2023/06/19 12:21:31;;;;;;;6.38;4.40;;;;;;;28.09;75.26;94591.31;5041610;28;20331;-85
2023/06/19 12:24:03;;;;;;;7.18;4.38;;;;;;;27.85;70.86;94590.00;5041599;28;20033;-85
2023/06/19 12:26:48;;;;;;;8.35;4.43;;;;;;;27.74;73.92;94597.19;5041514;28;20029;-85
2023/06/19 12:29:13;;;;;;;8.95;4.40;;;;;;;27.71;72.37;94592.56;5041537;28;20115;-85
2023/06/19 12:31:39;;;;;;;7.55;4.68;;;;;;;28.32;68.89;94592.22;5025172;28;20087;-85
2023/06/19 12:34:07;;;;;;;9.27;4.38;;;;;;;28.44;70.87;94601.94;5025098;28;20078;-86
2023/06/19 12:39:17;;;;;;;8.57;4.47;;;;;;;27.79;86.39;94597.63;5043992;28;20044;-85
2023/06/19 12:42:01;;;;;;;8.45;5.00;;;;;;;28.20;62.16;94599.50;5025233;28;20033;-85
2023/06/19 12:44:26;;;;;;;9.32;4.88;;;;;;;29.09;64.34;94599.50;5041252;28;20025;-85
2023/06/19 12:46:52;;;;;;;7.80;4.80;;;;;;;28.91;66.40;94599.47;5059940;28;20029;-85
2023/06/19 12:49:18;;;;;;;12.00;4.78;;;;;;;28.73;65.32;94602.06;5061200;28;20044;-85
2023/06/19 12:52:02;;;;;;;6.80;4.57;;;;;;;28.49;70.05;94598.88;5061054;28;20028;-86
2023/06/19 12:54:28;;;;;;;7.75;4.75;;;;;;;28.56;69.33;94598.13;5044570;28;20123;-84
2023/06/19 12:56:53;;;;;;;8.38;5.10;;;;;;;28.23;66.63;94589.88;5060988;28;20394;-85
2023/06/19 12:59:37;;;;;;;8.55;4.90;;;;;;;28.00;59.19;94593.56;5060870;28;20116;-85
2023/06/19 13:02:03;;;;;;;7.40;4.35;;;;;;;28.76;62.03;94588.59;5079059;28;20380;-84
2023/06/19 13:05:06;;;;;;;7.25;4.20;;;;;;;29.17;54.68;94589.50;5060798;28;20032;-85
2023/06/19 13:07:32;;;;;;;5.53;4.23;;;;;;;29.58;55.55;94591.91;5060960;28;20039;-86
2023/06/19 13:09:58;;;;;;;7.97;4.72;;;;;;;29.56;45.74;94588.81;5044311;28;20025;-84
2023/06/19 13:15:08;;;;;;;8.05;4.43;;;;;;;29.83;50.69;94591.13;5062604;28;20086;-85
2023/06/19 13:17:52;;;;;;;5.93;4.28;;;;;;;30.12;44.21;94574.91;5043268;28;20032;-85
2023/06/19 13:20:36;;;;;;;5.65;4.05;;;;;;;30.68;40.75;94582.50;5058337;28;20083;-85